Time;durP1;ratioP1;P1;durP2;ratioP2;P2;SDS_P1;SDS_P2;PMS_P1;PMS_P2;Temp;Humidity;BMP_temperature;BMP_pressure;BME280_temperature;BME280_humidity;BME280_pressure;Samples;Min_cycle;Max_cycle;Signal;HPM_P1;HPM_P2
2021/05/11 00:00:36;;;;;;;13.13;5.07;;;12.70;62.10;;;;;;4919292;29;20056;-77
2021/05/11 00:03:01;;;;;;;10.02;4.88;;;12.70;62.50;;;;;;4903671;29;20426;-79
2021/05/11 00:05:29;;;;;;;6.43;4.18;;;12.70;62.90;;;;;;4903647;29;20123;-77
2021/05/11 00:07:55;;;;;;;8.75;4.43;;;12.60;63.40;;;;;;4903703;29;20100;-76
2021/05/11 00:10:22;;;;;;;16.08;7.57;;;12.60;63.60;;;;;;4920736;29;20078;-80
2021/05/11 00:12:48;;;;;;;17.17;7.85;;;12.60;64.00;;;;;;4903567;29;20039;-79
2021/05/11 00:15:14;;;;;;;12.57;5.75;;;12.60;63.90;;;;;;4903636;29;20036;-77
2021/05/11 00:17:40;;;;;;;7.93;4.32;;;12.70;63.60;;;;;;4920500;29;20478;-76
2021/05/11 00:20:07;;;;;;;5.10;3.47;;;12.80;63.10;;;;;;4920422;29;20039;-77
2021/05/11 00:22:33;;;;;;;4.68;3.10;;;12.90;61.90;;;;;;4920377;29;20475;-77
2021/05/11 00:24:58;;;;;;;3.25;2.95;;;12.90;61.40;;;;;;4920339;29;20107;-76
2021/05/11 00:27:24;;;;;;;3.47;2.72;;;13.00;60.60;;;;;;4920636;29;20378;-82
2021/05/11 00:29:50;;;;;;;4.18;3.05;;;13.00;59.90;;;;;;4903092;29;20028;-75
2021/05/11 00:32:15;;;;;;;4.45;3.00;;;13.00;59.60;;;;;;4920719;29;20067;-80
2021/05/11 00:34:41;;;;;;;4.22;2.90;;;13.00;59.40;;;;;;4920158;29;20024;-76
2021/05/11 00:37:07;;;;;;;6.45;3.10;;;13.10;59.50;;;;;;4920502;29;20025;-77
2021/05/11 00:39:32;;;;;;;3.85;2.90;;;13.10;59.30;;;;;;4903016;29;20107;-77
2021/05/11 00:41:58;;;;;;;5.35;3.40;;;13.10;59.40;;;;;;4920065;29;20035;-80
2021/05/11 00:44:26;;;;;;;4.75;3.00;;;13.10;59.50;;;;;;4903069;29;20031;-81
2021/05/11 00:47:02;;;;;;;4.32;3.00;;;13.10;60.00;;;;;;4920043;29;20458;-75
2021/05/11 00:49:29;;;;;;;3.13;2.85;;;13.10;60.00;;;;;;4920265;29;20494;-80
2021/05/11 00:51:56;;;;;;;3.35;3.05;;;13.10;59.90;;;;;;4920081;29;20024;-77
2021/05/11 00:54:23;;;;;;;4.68;3.30;;;13.10;59.30;;;;;;4902855;29;20401;-79
2021/05/11 00:56:50;;;;;;;3.97;2.80;;;13.10;59.40;;;;;;4919897;29;20036;-79
2021/05/11 00:59:18;;;;;;;5.22;3.20;;;13.10;59.90;;;;;;4902632;29;20119;-73
2021/05/11 01:01:43;;;;;;;3.90;3.08;;;13.10;60.00;;;;;;4902802;29;20035;-80
2021/05/11 01:04:09;;;;;;;3.63;2.85;;;13.10;60.00;;;;;;4902597;29;20048;-77
2021/05/11 01:06:35;;;;;;;3.38;2.80;;;13.00;60.10;;;;;;4902759;29;20127;-76
2021/05/11 01:09:01;;;;;;;4.60;2.90;;;12.90;60.30;;;;;;4902794;29;20025;-79
2021/05/11 01:11:27;;;;;;;2.92;2.65;;;12.90;60.70;;;;;;4901511;29;20720;-79
2021/05/11 01:13:52;;;;;;;3.45;2.53;;;12.90;60.90;;;;;;4902570;29;20028;-79
2021/05/11 01:16:18;;;;;;;2.80;2.60;;;12.90;61.00;;;;;;4919414;29;20039;-79
2021/05/11 01:18:47;;;;;;;4.70;2.83;;;12.90;60.80;;;;;;4919327;29;20407;-77
2021/05/11 01:21:29;;;;;;;5.32;3.08;;;12.80;61.00;;;;;;4919244;29;20028;-80
2021/05/11 01:24:38;;;;;;;7.40;4.03;;;12.80;60.90;;;;;;4902326;29;20028;-80
2021/05/11 02:22:44;;;;;;;3.33;2.70;;;13.00;59.30;;;;;;4918484;29;20039;-81
2021/05/11 02:25:13;;;;;;;4.28;2.58;;;13.00;59.40;;;;;;4918317;29;20035;-80
2021/05/11 02:27:38;;;;;;;4.15;3.00;;;13.00;59.50;;;;;;4918050;29;20016;-79
2021/05/11 02:30:08;;;;;;;3.85;3.00;;;13.00;60.00;;;;;;4917815;29;20039;-79
2021/05/11 02:32:37;;;;;;;4.22;3.10;;;13.00;59.50;;;;;;4918110;29;20032;-79
2021/05/11 02:35:04;;;;;;;2.97;2.65;;;13.00;59.70;;;;;;4901115;29;20470;-79
2021/05/11 02:37:30;;;;;;;5.63;3.25;;;13.00;59.70;;;;;;4901046;29;20072;-78
2021/05/11 02:39:55;;;;;;;4.78;3.20;;;13.00;59.30;;;;;;4921136;29;20059;-81
2021/05/11 02:42:21;;;;;;;3.10;2.72;;;13.00;59.20;;;;;;4936753;29;20024;-83
2021/05/11 02:44:47;;;;;;;3.58;3.17;;;13.00;59.10;;;;;;4919805;29;20500;-77
2021/05/11 02:47:14;;;;;;;6.60;3.15;;;13.00;58.90;;;;;;4919762;29;20051;-80
2021/05/11 02:49:43;;;;;;;4.47;3.10;;;13.00;58.90;;;;;;4919740;29;20114;-77
2021/05/11 02:52:10;;;;;;;3.30;2.90;;;12.90;59.00;;;;;;4918928;29;20466;-78
2021/05/11 02:54:36;;;;;;;4.43;3.35;;;12.90;59.20;;;;;;4935619;29;20028;-86
2021/05/11 02:57:02;;;;;;;4.82;3.30;;;12.90;59.30;;;;;;4916907;29;20028;-77
2021/05/11 02:59:28;;;;;;;5.05;3.50;;;12.90;59.30;;;;;;4917560;29;20024;-82
2021/05/11 03:01:54;;;;;;;3.50;3.20;;;12.90;59.20;;;;;;4917385;29;20370;-81
2021/05/11 03:04:19;;;;;;;4.90;3.10;;;12.90;59.00;;;;;;4900569;29;20052;-77
2021/05/11 03:06:45;;;;;;;3.97;3.08;;;12.90;59.20;;;;;;4900725;29;20426;-81
2021/05/11 03:09:12;;;;;;;4.32;3.00;;;12.90;59.40;;;;;;4900760;29;20818;-76
2021/05/11 03:11:37;;;;;;;6.50;2.85;;;12.90;59.30;;;;;;4917522;29;20078;-78
2021/05/11 03:14:04;;;;;;;6.20;3.33;;;12.90;59.30;;;;;;4917123;29;20115;-86
2021/05/11 03:16:32;;;;;;;5.53;3.20;;;12.90;59.20;;;;;;4900481;29;20028;-77
2021/05/11 03:18:58;;;;;;;4.10;3.20;;;13.00;59.00;;;;;;4900367;29;20115;-78
2021/05/11 03:21:23;;;;;;;3.28;2.92;;;13.00;59.10;;;;;;4900307;29;20150;-81
2021/05/11 03:23:49;;;;;;;4.57;3.08;;;13.10;59.20;;;;;;4900400;29;20024;-82
2021/05/11 03:26:15;;;;;;;4.40;2.97;;;13.10;59.20;;;;;;4900492;29;20377;-81
2021/05/11 03:28:40;;;;;;;4.07;3.05;;;13.10;59.50;;;;;;4917188;29;20043;-80
2021/05/11 03:31:06;;;;;;;3.40;2.75;;;13.10;59.50;;;;;;4900138;29;20124;-81
2021/05/11 03:33:32;;;;;;;4.35;3.03;;;13.10;59.70;;;;;;4900276;29;20028;-81
2021/05/11 03:35:57;;;;;;;3.80;3.08;;;13.20;60.00;;;;;;4920111;29;20092;-77
2021/05/11 03:38:23;;;;;;;3.33;3.00;;;13.30;59.90;;;;;;4921298;29;20106;-78
2021/05/11 03:40:49;;;;;;;3.03;2.70;;;13.30;60.20;;;;;;4921223;29;20029;-77
2021/05/11 03:43:20;;;;;;;3.20;2.72;;;13.30;60.30;;;;;;4920994;29;20473;-84
2021/05/11 03:45:51;;;;;;;4.88;2.90;;;13.30;60.50;;;;;;4904177;29;20028;-80
2021/05/11 03:48:17;;;;;;;5.05;2.83;;;13.30;60.40;;;;;;4903962;29;20443;-81
2021/05/11 03:50:43;;;;;;;3.42;2.58;;;13.30;60.50;;;;;;4921008;29;20103;-79
2021/05/11 03:53:08;;;;;;;3.92;2.83;;;13.40;60.60;;;;;;4903942;29;20383;-85
2021/05/11 03:55:34;;;;;;;4.03;2.97;;;13.40;60.70;;;;;;4920304;29;20028;-78
2021/05/11 03:58:00;;;;;;;5.30;2.95;;;13.40;60.70;;;;;;4920667;29;20382;-83
2021/05/11 04:00:27;;;;;;;3.17;2.88;;;13.50;60.00;;;;;;4903644;29;20028;-77
2021/05/11 04:02:52;;;;;;;2.65;2.45;;;13.60;59.80;;;;;;4903185;29;20040;-78
2021/05/11 04:05:20;;;;;;;4.97;2.88;;;13.60;60.00;;;;;;4920732;29;20060;-76
2021/05/11 04:07:47;;;;;;;4.70;2.83;;;13.60;59.90;;;;;;4920599;29;20482;-73
2021/05/11 04:10:19;;;;;;;3.72;3.33;;;13.70;59.70;;;;;;4920435;29;20032;-79
2021/05/11 04:18:18;;;;;;;4.30;2.70;;;13.80;59.30;;;;;;4862161;29;20408;-80
2021/05/11 04:20:46;;;;;;;5.35;3.28;;;13.80;59.20;;;;;;4847653;29;20522;-79
2021/05/11 04:23:12;;;;;;;8.32;5.28;;;13.80;59.40;;;;;;4890364;29;20048;-78
2021/05/11 04:25:38;;;;;;;3.00;2.80;;;13.90;59.20;;;;;;4920261;29;20071;-76
2021/05/11 04:28:04;;;;;;;3.83;3.10;;;13.90;59.50;;;;;;4903313;29;20032;-80
2021/05/11 04:30:29;;;;;;;4.60;2.80;;;13.90;59.30;;;;;;4920313;29;20470;-80
2021/05/11 04:32:55;;;;;;;6.38;2.90;;;13.90;59.30;;;;;;4920481;29;20028;-78
2021/05/11 04:35:21;;;;;;;4.90;2.75;;;14.00;58.90;;;;;;4903259;29;20028;-82
2021/05/11 04:37:46;;;;;;;3.50;2.90;;;14.00;58.70;;;;;;4903099;29;20071;-79
2021/05/11 04:40:13;;;;;;;6.93;2.97;;;14.00;59.30;;;;;;4919801;29;20381;-84
2021/05/11 04:42:42;;;;;;;3.72;3.05;;;14.00;58.30;;;;;;4903172;29;20083;-83
2021/05/11 04:45:08;;;;;;;5.13;2.83;;;14.10;58.00;;;;;;4919880;29;20072;-76
2021/05/11 04:47:47;;;;;;;4.10;2.85;;;14.10;57.80;;;;;;4920275;29;20020;-86
2021/05/11 04:50:24;;;;;;;4.82;2.97;;;14.00;57.80;;;;;;4903301;29;20431;-86
2021/05/11 04:52:50;;;;;;;4.60;2.90;;;14.00;58.30;;;;;;4902981;29;20071;-81
2021/05/11 04:55:18;;;;;;;3.20;2.90;;;14.00;58.20;;;;;;4920093;29;20024;-77
2021/05/11 04:57:44;;;;;;;2.83;2.50;;;14.10;58.00;;;;;;4902938;29;20032;-77
2021/05/11 05:00:11;;;;;;;5.13;2.80;;;14.10;58.30;;;;;;4919670;29;20039;-83
2021/05/11 05:02:42;;;;;;;6.60;2.63;;;14.10;58.40;;;;;;4903035;29;20031;-80
2021/05/11 05:05:08;;;;;;;5.20;3.80;;;14.10;58.50;;;;;;4902135;29;20549;-75
2021/05/11 05:07:37;;;;;;;5.03;3.00;;;14.20;58.60;;;;;;4919028;29;20482;-79
2021/05/11 05:10:04;;;;;;;3.30;2.75;;;14.30;59.10;;;;;;4919476;29;20067;-76
2021/05/11 05:12:30;;;;;;;3.50;2.50;;;14.30;59.60;;;;;;4919234;29;20043;-76
2021/05/11 05:14:56;;;;;;;3.75;3.00;;;14.30;59.90;;;;;;4902265;29;20028;-78
2021/05/11 05:17:22;;;;;;;4.68;2.90;;;14.40;60.30;;;;;;4919353;29;20479;-83
2021/05/11 05:19:47;;;;;;;3.25;2.60;;;14.40;60.50;;;;;;4902027;29;20375;-82
2021/05/11 05:22:13;;;;;;;4.93;2.80;;;14.40;60.90;;;;;;4902252;29;20032;-77
2021/05/11 05:24:49;;;;;;;2.70;2.50;;;14.60;61.40;;;;;;4918974;29;20507;-78
2021/05/11 05:29:43;;;;;;;3.78;2.72;;;14.70;62.00;;;;;;4919145;29;20117;-81
2021/05/11 05:32:08;;;;;;;3.03;2.70;;;14.80;62.10;;;;;;4918810;29;20467;-76
2021/05/11 05:34:34;;;;;;;4.55;2.78;;;14.80;62.50;;;;;;4917644;29;20478;-79
2021/05/11 05:37:00;;;;;;;4.95;2.72;;;14.90;62.60;;;;;;4918949;29;20032;-85
2021/05/11 05:39:39;;;;;;;2.95;2.60;;;14.90;62.80;;;;;;4917530;29;20032;-77
2021/05/11 05:42:05;;;;;;;4.68;2.72;;;15.00;62.90;;;;;;4918917;29;20785;-83
2021/05/11 05:44:31;;;;;;;2.75;2.55;;;15.00;62.60;;;;;;4918770;29;20142;-81
2021/05/11 05:46:57;;;;;;;3.70;2.45;;;15.10;62.30;;;;;;4918677;29;20020;-81
2021/05/11 05:49:25;;;;;;;3.85;2.38;;;15.20;62.00;;;;;;4901812;29;20039;-81
2021/05/11 05:51:51;;;;;;;3.35;3.05;;;15.20;62.30;;;;;;4918802;29;20028;-81
2021/05/11 05:54:17;;;;;;;2.50;2.30;;;15.20;62.30;;;;;;4901707;29;20099;-80
2021/05/11 05:56:43;;;;;;;3.63;2.63;;;15.30;62.20;;;;;;4918211;29;20463;-78
2021/05/11 05:59:09;;;;;;;3.42;2.90;;;15.30;62.30;;;;;;4917926;29;20032;-82
2021/05/11 06:01:35;;;;;;;4.32;2.47;;;15.40;62.50;;;;;;4918621;29;20028;-87
2021/05/11 06:04:16;;;;;;;3.65;2.20;;;15.40;62.70;;;;;;4918201;29;20380;-80
2021/05/11 06:06:42;;;;;;;3.47;2.38;;;15.40;63.00;;;;;;4901607;29;20052;-80
2021/05/11 06:09:15;;;;;;;2.60;2.40;;;15.50;62.50;;;;;;4918448;29;20110;-79
2021/05/11 06:14:15;;;;;;;2.50;2.30;;;15.70;62.40;;;;;;4918510;29;20159;-78
2021/05/11 06:19:25;;;;;;;5.68;2.75;;;15.80;62.20;;;;;;4918689;29;20034;-78
2021/05/11 06:21:50;;;;;;;2.72;2.50;;;15.80;62.30;;;;;;4918890;29;20107;-78
2021/05/11 06:24:16;;;;;;;2.95;2.38;;;15.90;61.90;;;;;;4918442;29;20032;-78
2021/05/11 06:26:43;;;;;;;3.15;2.47;;;16.10;61.40;;;;;;4901239;29;20446;-75
2021/05/11 06:29:10;;;;;;;3.60;2.33;;;16.10;60.60;;;;;;4918437;29;20103;-89
2021/05/11 06:31:35;;;;;;;3.30;2.22;;;16.10;60.70;;;;;;4918228;29;20044;-77
2021/05/11 06:34:03;;;;;;;3.78;2.53;;;16.30;59.60;;;;;;4918066;29;20028;-77
2021/05/11 06:36:29;;;;;;;8.13;2.65;;;16.30;59.70;;;;;;4901504;29;20382;-77
2021/05/11 06:38:54;;;;;;;7.28;2.97;;;16.30;59.60;;;;;;4917682;29;20034;-76
2021/05/11 06:41:20;;;;;;;4.45;2.80;;;16.30;59.70;;;;;;4918078;29;20084;-77
2021/05/11 06:43:47;;;;;;;3.33;2.70;;;16.40;59.20;;;;;;4900940;29;20028;-77
2021/05/11 06:48:52;;;;;;;3.55;2.67;;;16.40;59.00;;;;;;4917990;29;20088;-77
2021/05/11 06:53:54;;;;;;;2.42;2.22;;;16.30;59.90;;;;;;4917767;29;20029;-80
2021/05/11 06:56:21;;;;;;;4.65;2.58;;;16.30;60.40;;;;;;4917733;29;20032;-81
2021/05/11 06:58:47;;;;;;;2.85;2.40;;;16.10;60.80;;;;;;4917976;29;20415;-76
2021/05/11 07:01:20;;;;;;;5.10;2.65;;;16.10;61.30;;;;;;4917710;29;20016;-79
2021/05/11 07:03:46;;;;;;;2.63;2.30;;;16.10;61.80;;;;;;4917751;29;20048;-80
2021/05/11 07:06:13;;;;;;;3.63;2.90;;;16.00;62.30;;;;;;4917270;29;20020;-77
2021/05/11 07:08:42;;;;;;;5.00;2.88;;;15.90;62.70;;;;;;4917087;29;20470;-78
2021/05/11 07:11:22;;;;;;;3.95;2.45;;;15.80;63.40;;;;;;4917463;29;20066;-79
2021/05/11 07:13:48;;;;;;;;;;;15.80;64.00;;;;;;4917832;29;20459;-80
2021/05/11 07:16:14;;;;;;;4.93;2.33;;;15.80;64.60;;;;;;4900491;29;19907;-80
2021/05/11 07:18:40;;;;;;;3.55;2.35;;;15.70;65.30;;;;;;4917442;29;20035;-78
2021/05/11 07:21:05;;;;;;;2.95;2.40;;;15.80;66.00;;;;;;4900526;29;20476;-81
2021/05/11 07:23:32;;;;;;;2.33;2.13;;;15.90;66.60;;;;;;4900508;29;20406;-78
2021/05/11 07:31:11;;;;;;;6.55;2.80;;;16.50;67.90;;;;;;4917340;29;20035;-78
2021/05/11 07:36:13;;;;;;;3.05;2.20;;;16.80;68.60;;;;;;4917153;29;20047;-80
2021/05/11 07:38:39;;;;;;;2.08;1.67;;;17.00;68.50;;;;;;4917047;29;20020;-80
2021/05/11 07:41:06;;;;;;;3.30;2.13;;;17.20;67.90;;;;;;4900502;29;20035;-86
2021/05/11 07:43:33;;;;;;;3.45;2.17;;;17.40;67.50;;;;;;4917323;29;20142;-88
2021/05/11 08:02:50;;;;;;;3.78;2.05;;;18.10;65.70;;;;;;4917729;29;20410;-86
2021/05/11 08:15:51;;;;;;;1.98;1.80;;;18.60;64.60;;;;;;4917559;29;20466;-86
2021/05/11 08:18:32;;;;;;;2.38;2.17;;;18.80;64.60;;;;;;4900182;29;20083;-81
2021/05/11 08:29:10;;;;;;;3.45;1.92;;;19.20;64.80;;;;;;4920593;29;20163;-82
2021/05/11 08:31:36;;;;;;;2.72;2.03;;;19.30;64.80;;;;;;4920038;29;20533;-74
2021/05/11 08:34:02;;;;;;;5.53;1.85;;;19.50;63.10;;;;;;4920449;29;20471;-89
2021/05/11 08:36:27;;;;;;;4.80;2.47;;;19.70;61.80;;;;;;4920175;29;20036;-89
2021/05/11 08:38:57;;;;;;;2.88;2.38;;;19.80;62.60;;;;;;4920534;29;20482;-90
2021/05/11 08:41:23;;;;;;;3.03;2.15;;;19.90;62.40;;;;;;4903494;29;20032;-84
2021/05/11 08:43:48;;;;;;;5.10;2.20;;;20.00;62.10;;;;;;4903644;29;20024;-82
2021/05/11 08:46:14;;;;;;;5.57;2.33;;;20.10;62.10;;;;;;4919023;29;20481;-78
2021/05/11 08:48:40;;;;;;;5.45;2.40;;;20.20;61.60;;;;;;4903220;29;20028;-79
2021/05/11 09:27:00;;;;;;;6.88;2.10;;;21.20;57.20;;;;;;4919939;29;20523;-88
2021/05/11 09:57:19;;;;;;;3.30;2.10;;;20.90;58.30;;;;;;4918978;29;20533;-83
2021/05/11 10:48:18;;;;;;;6.10;1.73;;;21.50;56.10;;;;;;4918534;29;20382;-91
2021/05/11 10:50:53;;;;;;;6.88;2.00;;;21.50;56.40;;;;;;4918612;29;20034;-78
2021/05/11 10:53:39;;;;;;;4.28;1.92;;;21.60;56.30;;;;;;4901076;29;20067;-84
2021/05/11 10:56:37;;;;;;;4.15;1.88;;;21.70;55.60;;;;;;4917765;29;20024;-80
2021/05/11 10:59:12;;;;;;;4.10;2.08;;;21.70;55.10;;;;;;4900534;29;20418;-81
2021/05/11 11:01:38;;;;;;;4.00;1.88;;;21.80;54.20;;;;;;4900777;29;20038;-83
2021/05/11 11:04:14;;;;;;;7.15;2.03;;;21.90;54.10;;;;;;4900664;29;20054;-81
2021/05/11 11:07:01;;;;;;;7.75;2.03;;;22.00;54.10;;;;;;4916273;29;20055;-84
2021/05/11 11:09:28;;;;;;;3.65;1.90;;;22.10;54.00;;;;;;4916338;29;20080;-79
2021/05/11 11:11:55;;;;;;;2.30;1.50;;;22.20;53.90;;;;;;4916330;29;20028;-78
2021/05/11 11:14:21;;;;;;;4.30;2.00;;;22.30;54.30;;;;;;4900506;29;20040;-74
2021/05/11 11:16:49;;;;;;;6.30;2.22;;;22.40;54.60;;;;;;4917238;29;20036;-80
2021/05/11 11:19:16;;;;;;;5.00;1.88;;;22.50;53.20;;;;;;4917737;29;20038;-87
2021/05/11 11:24:36;;;;;;;5.97;2.40;;;22.80;53.30;;;;;;4918138;29;20530;-78
2021/05/11 11:27:02;;;;;;;9.35;4.68;;;22.90;52.90;;;;;;4916159;29;20032;-83
2021/05/11 11:29:28;;;;;;;7.15;2.38;;;22.90;53.20;;;;;;4916421;29;20028;-82
2021/05/11 11:31:54;;;;;;;3.03;1.83;;;23.00;52.90;;;;;;4916210;29;20032;-84
2021/05/11 11:34:32;;;;;;;4.38;1.80;;;22.90;53.10;;;;;;4915477;29;20777;-84
2021/05/11 11:37:00;;;;;;;4.60;2.00;;;22.90;52.90;;;;;;4917263;29;20042;-78
2021/05/11 11:39:42;;;;;;;5.07;2.28;;;22.90;53.20;;;;;;4917051;29;20028;-79
2021/05/11 11:42:20;;;;;;;5.65;2.17;;;22.80;53.50;;;;;;4917631;29;20099;-82
2021/05/11 11:44:48;;;;;;;9.23;1.75;;;22.70;54.00;;;;;;4917160;29;20386;-89
2021/05/11 11:47:14;;;;;;;5.43;2.60;;;22.70;54.00;;;;;;4915931;29;20091;-80
2021/05/11 11:49:44;;;;;;;3.85;1.98;;;22.80;53.40;;;;;;4915969;29;20470;-85
2021/05/11 11:52:38;;;;;;;3.92;2.22;;;22.90;52.40;;;;;;4916949;29;20142;-85
2021/05/11 12:00:19;;;;;;;6.25;2.17;;;23.40;53.10;;;;;;4920302;29;20032;-80
2021/05/11 12:03:00;;;;;;;6.47;1.95;;;23.90;53.60;;;;;;4918713;29;20024;-77
2021/05/11 12:05:37;;;;;;;6.30;2.58;;;24.90;51.60;;;;;;4901708;29;20040;-78
2021/05/11 12:10:41;;;;;;;4.72;1.70;;;26.40;47.60;;;;;;4901816;29;20040;-78
2021/05/11 12:13:10;;;;;;;6.55;2.30;;;26.60;47.10;;;;;;4902234;29;20111;-78
2021/05/11 12:15:36;;;;;;;4.78;2.13;;;26.60;45.80;;;;;;4901723;29;20026;-78
2021/05/11 12:20:40;;;;;;;5.35;2.17;;;26.30;46.70;;;;;;4901707;29;20395;-76
2021/05/11 12:23:14;;;;;;;8.02;2.30;;;26.00;47.50;;;;;;4885108;29;20028;-76
2021/05/11 12:25:40;;;;;;;6.50;2.15;;;25.80;47.10;;;;;;4884990;29;20032;-87
2021/05/11 12:28:06;;;;;;;4.25;2.42;;;25.50;46.40;;;;;;4902152;29;20021;-90
2021/05/11 12:30:43;;;;;;;3.10;2.08;;;25.30;47.20;;;;;;4901678;29;20071;-79
2021/05/11 12:33:11;;;;;;;5.75;2.35;;;25.60;47.20;;;;;;4901548;29;20080;-83
2021/05/11 12:35:42;;;;;;;4.32;2.55;;;26.40;47.40;;;;;;4901892;29;20384;-83
2021/05/11 12:38:25;;;;;;;4.53;2.03;;;27.40;46.80;;;;;;4885102;29;20127;-74
2021/05/11 12:41:06;;;;;;;6.95;2.33;;;28.50;45.00;;;;;;4901638;29;20020;-84
2021/05/11 12:43:41;;;;;;;5.53;2.33;;;28.70;43.50;;;;;;4901809;29;20029;-78
2021/05/11 12:46:37;;;;;;;8.77;2.47;;;28.30;43.70;;;;;;4884485;29;20024;-73
2021/05/11 12:49:05;;;;;;;4.70;2.28;;;27.60;44.40;;;;;;4883565;29;20085;-79
2021/05/11 12:51:41;;;;;;;5.07;2.40;;;26.90;45.50;;;;;;4884468;29;20084;-80
2021/05/11 12:54:30;;;;;;;4.82;2.85;;;26.50;45.90;;;;;;4884678;29;20151;-78
2021/05/11 12:57:06;;;;;;;6.53;2.92;;;26.10;46.00;;;;;;4901487;29;20459;-90
2021/05/11 13:02:27;;;;;;;4.63;2.60;;;25.40;47.60;;;;;;4901267;29;20021;-79
2021/05/11 13:05:05;;;;;;;7.30;2.97;;;25.20;47.70;;;;;;4915771;29;20123;-77
2021/05/11 13:16:09;;;;;;;6.20;2.63;;;25.00;49.00;;;;;;4920061;29;20099;-80
2021/05/11 13:26:29;;;;;;;3.83;3.05;;;25.90;48.00;;;;;;4919674;29;20035;-78
2021/05/11 13:29:43;;;;;;;5.95;3.20;;;26.10;48.00;;;;;;4902361;29;20059;-87
2021/05/11 13:31:51;;;;;;;4.40;3.17;;;26.20;47.30;;;;;;4909000;29;20040;-83
2021/05/11 13:34:19;;;;;;;5.45;3.20;;;26.10;47.40;;;;;;4919600;29;20032;-74
2021/05/11 13:36:45;;;;;;;6.68;3.47;;;26.00;47.80;;;;;;4902466;29;20032;-83
2021/05/11 13:39:11;;;;;;;5.85;3.50;;;26.10;47.80;;;;;;4901333;29;20462;-80
2021/05/11 13:41:37;;;;;;;7.63;3.70;;;26.10;46.80;;;;;;4918410;29;20035;-78
2021/05/11 13:44:04;;;;;;;7.28;4.03;;;26.00;47.80;;;;;;4901801;29;20035;-86
2021/05/11 13:46:31;;;;;;;8.73;4.05;;;26.20;48.20;;;;;;4900871;29;20115;-82
2021/05/11 13:48:57;;;;;;;4.78;3.60;;;26.40;46.70;;;;;;4901274;29;20081;-89
2021/05/11 13:51:23;;;;;;;10.75;3.70;;;26.60;46.40;;;;;;4902100;29;20032;-76
2021/05/11 13:53:56;;;;;;;6.25;3.90;;;26.60;46.20;;;;;;4918739;29;20364;-84
2021/05/11 14:04:23;;;;;;;7.25;4.00;;;27.50;45.80;;;;;;4917984;29;20537;-82
2021/05/11 14:06:49;;;;;;;9.43;4.38;;;27.20;46.20;;;;;;4918536;29;20099;-82
2021/05/11 14:09:15;;;;;;;4.45;3.83;;;27.10;46.60;;;;;;4901687;29;20032;-78
2021/05/11 14:11:41;;;;;;;6.55;3.88;;;27.00;46.40;;;;;;4918386;29;20020;-78
2021/05/11 14:14:09;;;;;;;3.92;3.53;;;27.10;46.30;;;;;;4901828;29;20036;-80
2021/05/11 14:16:35;;;;;;;5.07;3.67;;;26.90;46.30;;;;;;4901902;29;20473;-79
2021/05/11 14:19:01;;;;;;;4.88;3.50;;;26.60;46.50;;;;;;4900663;29;20032;-80
2021/05/11 14:21:27;;;;;;;4.85;3.90;;;26.40;47.20;;;;;;4918357;29;20800;-83
2021/05/11 14:23:56;;;;;;;6.15;4.03;;;26.50;47.50;;;;;;4900750;29;20083;-85
2021/05/11 14:26:22;;;;;;;9.77;5.68;;;26.40;47.40;;;;;;4918504;29;20103;-83
2021/05/11 14:28:48;;;;;;;13.65;3.97;;;26.20;47.60;;;;;;4901647;29;20079;-77
2021/05/11 14:31:13;;;;;;;7.85;3.45;;;26.00;48.40;;;;;;4918485;29;20028;-81
2021/05/11 14:33:39;;;;;;;8.05;3.20;;;25.70;51.00;;;;;;4901142;29;20052;-83
2021/05/11 14:36:07;;;;;;;13.80;3.30;;;25.20;52.70;;;;;;4917996;29;20051;-79
2021/05/11 14:38:37;;;;;;;7.35;3.05;;;24.60;54.50;;;;;;4918113;29;20044;-83
2021/05/11 14:41:03;;;;;;;24.73;3.67;;;24.20;56.90;;;;;;4901177;29;20423;-75
2021/05/11 14:43:33;;;;;;;16.88;3.50;;;23.60;58.90;;;;;;4917706;29;20035;-78
2021/05/11 14:46:00;;;;;;;52.58;5.53;;;23.30;61.70;;;;;;4900720;29;20390;-76
2021/05/11 14:48:26;;;;;;;7.50;3.53;;;22.90;63.20;;;;;;4900780;29;20533;-79
2021/05/11 14:50:52;;;;;;;8.82;3.47;;;22.60;65.00;;;;;;4917964;29;20071;-79
2021/05/11 14:53:18;;;;;;;7.78;3.30;;;22.40;66.10;;;;;;4900821;29;20055;-84
2021/05/11 14:55:44;;;;;;;6.93;3.42;;;22.20;67.60;;;;;;4917776;29;20036;-90
2021/05/11 14:58:10;;;;;;;4.60;3.20;;;22.00;69.30;;;;;;4900864;29;20036;-82
2021/05/11 15:00:35;;;;;;;7.40;3.70;;;21.80;70.90;;;;;;4917469;29;20016;-83
2021/05/11 15:03:01;;;;;;;9.70;3.40;;;21.50;72.10;;;;;;4918067;29;20486;-80
2021/05/11 15:05:27;;;;;;;6.82;3.47;;;21.40;72.60;;;;;;4917379;29;20494;-84
2021/05/11 15:07:54;;;;;;;6.68;3.60;;;21.20;73.50;;;;;;4900036;29;20084;-80
2021/05/11 15:10:20;;;;;;;16.77;4.15;;;21.10;74.30;;;;;;4900657;29;20039;-86
2021/05/11 15:12:47;;;;;;;5.10;3.75;;;20.90;75.00;;;;;;4917547;29;20526;-80
2021/05/11 15:15:20;;;;;;;4.22;3.58;;;20.80;75.20;;;;;;4917408;29;20028;-83
2021/05/11 15:20:13;;;;;;;8.00;4.03;;;20.50;76.60;;;;;;4917320;29;20029;-77
2021/05/11 15:22:39;;;;;;;4.45;3.97;;;20.30;77.10;;;;;;4917221;29;20035;-78
2021/05/11 15:25:05;;;;;;;6.75;4.18;;;20.20;77.60;;;;;;4917548;29;20378;-80
2021/05/11 15:27:32;;;;;;;7.38;4.00;;;20.10;78.80;;;;;;4900164;29;20435;-80
2021/05/11 15:29:58;;;;;;;4.53;4.00;;;20.00;78.50;;;;;;4900294;29;20066;-78
2021/05/11 15:32:40;;;;;;;7.45;3.90;;;20.00;78.60;;;;;;4921246;29;20035;-78
2021/05/11 15:35:17;;;;;;;7.40;4.00;;;19.80;78.70;;;;;;4921582;29;20032;-81
2021/05/11 15:37:46;;;;;;;6.82;4.10;;;19.80;78.70;;;;;;4921201;29;20032;-78
2021/05/11 15:40:16;;;;;;;6.85;4.47;;;19.80;78.60;;;;;;4904157;29;20071;-80
2021/05/11 15:42:42;;;;;;;;;;;19.70;78.90;;;;;;4921688;29;20028;-80
2021/05/11 15:45:09;;;;;;;4.40;4.00;;;19.60;78.50;;;;;;4921133;29;19955;-81
2021/05/11 15:47:38;;;;;;;6.18;3.72;;;19.50;78.90;;;;;;4921034;29;20032;-78
2021/05/11 15:50:05;;;;;;;7.43;4.20;;;19.50;78.90;;;;;;4920732;29;20024;-80
2021/05/11 15:52:31;;;;;;;5.38;4.40;;;19.50;79.00;;;;;;4920926;29;20051;-80
2021/05/11 15:54:57;;;;;;;4.82;4.18;;;19.50;79.10;;;;;;4903933;29;20032;-79
2021/05/11 15:57:23;;;;;;;6.82;4.35;;;19.40;79.10;;;;;;4920892;29;20024;-80
2021/05/11 15:59:48;;;;;;;7.80;4.22;;;19.40;79.30;;;;;;4903998;29;20032;-78
2021/05/11 16:02:14;;;;;;;5.78;4.75;;;19.30;79.10;;;;;;4920849;29;20020;-78
2021/05/11 16:04:40;;;;;;;7.53;4.47;;;19.20;79.40;;;;;;4920712;29;20055;-80
2021/05/11 16:07:05;;;;;;;4.70;4.10;;;19.20;79.40;;;;;;4920754;29;20028;-81
2021/05/11 16:09:31;;;;;;;7.50;4.20;;;19.10;79.30;;;;;;4903729;29;20028;-86
2021/05/11 16:11:57;;;;;;;4.88;4.30;;;19.10;79.20;;;;;;4921209;29;20081;-80
2021/05/11 16:14:23;;;;;;;5.03;4.30;;;19.10;79.20;;;;;;4903701;29;20028;-82
2021/05/11 16:16:49;;;;;;;7.95;4.50;;;19.10;79.20;;;;;;4920364;29;20032;-81
2021/05/11 16:19:15;;;;;;;6.47;4.78;;;19.10;79.40;;;;;;4903500;29;20025;-80
2021/05/11 16:21:40;;;;;;;9.38;4.97;;;19.00;79.40;;;;;;4920431;29;20020;-81
2021/05/11 16:24:06;;;;;;;6.05;4.50;;;19.00;79.50;;;;;;4920437;29;20035;-82
2021/05/11 16:26:32;;;;;;;4.88;4.47;;;19.00;79.50;;;;;;4903375;29;20031;-82
2021/05/11 16:28:58;;;;;;;6.43;4.80;;;19.00;79.50;;;;;;4903368;29;20028;-82
2021/05/11 16:31:24;;;;;;;7.50;4.53;;;19.00;79.40;;;;;;4903020;29;20403;-81
2021/05/11 16:33:50;;;;;;;10.00;4.97;;;19.00;79.50;;;;;;4920294;29;20031;-84
2021/05/11 16:36:16;;;;;;;7.38;4.30;;;19.00;79.60;;;;;;4903070;29;20032;-84
2021/05/11 16:38:42;;;;;;;5.82;4.47;;;18.90;79.50;;;;;;4919841;29;20059;-80
2021/05/11 16:41:08;;;;;;;4.55;4.10;;;18.90;79.80;;;;;;4902350;29;20021;-81
2021/05/11 16:43:34;;;;;;;4.88;4.45;;;18.80;79.80;;;;;;4920097;29;20478;-81
2021/05/11 16:46:05;;;;;;;5.05;4.50;;;18.80;80.20;;;;;;4920466;29;20031;-79
2021/05/11 16:48:32;;;;;;;7.53;4.90;;;18.70;80.30;;;;;;4903231;29;20390;-82
2021/05/11 16:50:59;;;;;;;5.15;4.50;;;18.70;80.30;;;;;;4920193;29;20028;-82
2021/05/11 16:53:25;;;;;;;4.68;4.28;;;18.70;80.70;;;;;;4919991;29;20032;-81
2021/05/11 16:55:50;;;;;;;6.93;4.90;;;18.60;80.60;;;;;;4919859;29;20414;-80
2021/05/11 16:58:16;;;;;;;6.68;4.80;;;18.60;80.80;;;;;;4919877;29;20075;-80
2021/05/11 17:00:43;;;;;;;6.32;4.88;;;18.60;80.80;;;;;;4919726;29;20032;-82
2021/05/11 17:03:09;;;;;;;6.70;4.30;;;18.60;80.70;;;;;;4920025;29;20522;-80
2021/05/11 17:05:36;;;;;;;6.15;4.40;;;18.50;80.70;;;;;;4919509;29;20044;-82
2021/05/11 17:08:03;;;;;;;8.10;4.63;;;18.50;80.70;;;;;;4919797;29;20021;-81
2021/05/11 17:10:30;;;;;;;6.10;4.32;;;18.50;80.80;;;;;;4917732;29;20445;-81
2021/05/11 17:12:58;;;;;;;5.78;4.90;;;18.50;81.00;;;;;;4919435;29;20075;-83
2021/05/11 17:15:24;;;;;;;5.82;4.40;;;18.40;81.20;;;;;;4918989;29;20028;-81
2021/05/11 17:17:50;;;;;;;4.90;4.38;;;18.40;81.30;;;;;;4918853;29;20044;-84
2021/05/11 17:20:20;;;;;;;5.32;4.40;;;18.30;81.60;;;;;;4918986;29;20025;-83
2021/05/11 17:22:49;;;;;;;13.65;4.68;;;18.30;81.70;;;;;;4902309;29;20025;-83
2021/05/11 17:25:15;;;;;;;12.02;6.57;;;18.30;82.00;;;;;;4918550;29;20020;-84